sensor_id;sensor_type;location;lat;lon;timestamp;temperature;humidity
9800;DHT22;4939;52.00085300;4.17406100;2023-04-07T00:00:53;7.90;99.90
9800;DHT22;4939;52.00085300;4.17406100;2023-04-07T00:03:19;7.80;99.90
9800;DHT22;4939;52.00085300;4.17406100;2023-04-07T00:05:45;7.80;99.90
9800;DHT22;4939;52.00085300;4.17406100;2023-04-07T00:08:10;7.90;99.90
9800;DHT22;4939;52.00085300;4.17406100;2023-04-07T00:10:36;7.90;99.90
9800;DHT22;4939;52.00085300;4.17406100;2023-04-07T00:15:28;7.90;99.90
9800;DHT22;4939;52.00085300;4.17406100;2023-04-07T00:17:54;7.90;99.90
9800;DHT22;4939;52.00085300;4.17406100;2023-04-07T00:22:47;7.80;99.90
9800;DHT22;4939;52.00085300;4.17406100;2023-04-07T00:25:13;7.90;99.90
9800;DHT22;4939;52.00085300;4.17406100;2023-04-07T00:27:38;7.90;99.90
9800;DHT22;4939;52.00085300;4.17406100;2023-04-07T00:30:04;7.90;99.90
9800;DHT22;4939;52.00085300;4.17406100;2023-04-07T00:32:30;7.90;99.90
9800;DHT22;4939;52.00085300;4.17406100;2023-04-07T00:34:56;7.90;99.90
9800;DHT22;4939;52.00085300;4.17406100;2023-04-07T00:37:22;7.90;99.90
9800;DHT22;4939;52.00085300;4.17406100;2023-04-07T00:39:50;8.00;99.90
9800;DHT22;4939;52.00085300;4.17406100;2023-04-07T00:42:16;8.00;99.90
9800;DHT22;4939;52.00085300;4.17406100;2023-04-07T00:47:08;7.90;99.90
9800;DHT22;4939;52.00085300;4.17406100;2023-04-07T00:49:36;7.90;99.90
9800;DHT22;4939;52.00085300;4.17406100;2023-04-07T00:52:02;7.90;99.90
9800;DHT22;4939;52.00085300;4.17406100;2023-04-07T00:54:29;8.00;99.90
9800;DHT22;4939;52.00085300;4.17406100;2023-04-07T00:56:55;7.90;99.90
9800;DHT22;4939;52.00085300;4.17406100;2023-04-07T00:59:22;8.00;99.90
9800;DHT22;4939;52.00085300;4.17406100;2023-04-07T01:02:00;7.90;99.90
9800;DHT22;4939;52.00085300;4.17406100;2023-04-07T01:04:34;8.00;99.90
9800;DHT22;4939;52.00085300;4.17406100;2023-04-07T01:07:08;7.90;99.90
9800;DHT22;4939;52.00085300;4.17406100;2023-04-07T01:09:47;7.90;99.90
9800;DHT22;4939;52.00085300;4.17406100;2023-04-07T01:12:23;8.00;99.90
9800;DHT22;4939;52.00085300;4.17406100;2023-04-07T01:14:58;8.00;99.90
9800;DHT22;4939;52.00085300;4.17406100;2023-04-07T01:17:25;8.00;99.90
9800;DHT22;4939;52.00085300;4.17406100;2023-04-07T01:19:58;7.90;99.90
9800;DHT22;4939;52.00085300;4.17406100;2023-04-07T01:22:53;8.00;99.90
9800;DHT22;4939;52.00085300;4.17406100;2023-04-07T01:30:35;8.00;99.90
9800;DHT22;4939;52.00085300;4.17406100;2023-04-07T01:33:03;8.00;99.90
9800;DHT22;4939;52.00085300;4.17406100;2023-04-07T01:35:33;8.00;99.90
9800;DHT22;4939;52.00085300;4.17406100;2023-04-07T01:37:59;8.00;99.90
9800;DHT22;4939;52.00085300;4.17406100;2023-04-07T01:40:26;8.00;99.90
9800;DHT22;4939;52.00085300;4.17406100;2023-04-07T01:42:53;8.00;99.90
9800;DHT22;4939;52.00085300;4.17406100;2023-04-07T01:45:21;8.10;99.90
9800;DHT22;4939;52.00085300;4.17406100;2023-04-07T01:47:48;8.00;99.90
9800;DHT22;4939;52.00085300;4.17406100;2023-04-07T01:50:15;8.00;99.90
9800;DHT22;4939;52.00085300;4.17406100;2023-04-07T01:52:41;8.10;99.90
9800;DHT22;4939;52.00085300;4.17406100;2023-04-07T01:55:08;8.00;99.90
9800;DHT22;4939;52.00085300;4.17406100;2023-04-07T01:57:34;8.10;99.90
9800;DHT22;4939;52.00085300;4.17406100;2023-04-07T02:00:00;8.10;99.90
9800;DHT22;4939;52.00085300;4.17406100;2023-04-07T02:02:26;8.20;99.90
9800;DHT22;4939;52.00085300;4.17406100;2023-04-07T02:04:54;8.20;99.90
9800;DHT22;4939;52.00085300;4.17406100;2023-04-07T02:07:28;8.20;99.90
9800;DHT22;4939;52.00085300;4.17406100;2023-04-07T02:10:12;8.20;99.90
9800;DHT22;4939;52.00085300;4.17406100;2023-04-07T02:12:40;8.20;99.90
9800;DHT22;4939;52.00085300;4.17406100;2023-04-07T02:15:11;8.30;99.90
9800;DHT22;4939;52.00085300;4.17406100;2023-04-07T02:17:39;8.20;99.90
9800;DHT22;4939;52.00085300;4.17406100;2023-04-07T02:20:07;8.20;99.90
9800;DHT22;4939;52.00085300;4.17406100;2023-04-07T02:22:33;8.20;99.90
9800;DHT22;4939;52.00085300;4.17406100;2023-04-07T02:25:01;8.20;99.90
9800;DHT22;4939;52.00085300;4.17406100;2023-04-07T02:27:28;8.10;99.90
9800;DHT22;4939;52.00085300;4.17406100;2023-04-07T02:29:54;8.20;99.90
9800;DHT22;4939;52.00085300;4.17406100;2023-04-07T02:32:21;8.10;99.90
9800;DHT22;4939;52.00085300;4.17406100;2023-04-07T02:34:47;8.00;99.90
9800;DHT22;4939;52.00085300;4.17406100;2023-04-07T02:39:39;8.10;99.90
9800;DHT22;4939;52.00085300;4.17406100;2023-04-07T02:42:05;8.00;99.90
9800;DHT22;4939;52.00085300;4.17406100;2023-04-07T02:44:32;8.00;99.90
9800;DHT22;4939;52.00085300;4.17406100;2023-04-07T02:46:58;8.20;99.90
9800;DHT22;4939;52.00085300;4.17406100;2023-04-07T02:49:23;8.20;99.90
9800;DHT22;4939;52.00085300;4.17406100;2023-04-07T02:51:49;8.20;99.90
9800;DHT22;4939;52.00085300;4.17406100;2023-04-07T02:54:15;8.20;99.90
9800;DHT22;4939;52.00085300;4.17406100;2023-04-07T02:56:41;8.20;99.90
9800;DHT22;4939;52.00085300;4.17406100;2023-04-07T02:59:10;8.30;99.90
9800;DHT22;4939;52.00085300;4.17406100;2023-04-07T03:01:36;8.30;99.90
9800;DHT22;4939;52.00085300;4.17406100;2023-04-07T03:04:03;8.40;99.90
9800;DHT22;4939;52.00085300;4.17406100;2023-04-07T03:06:29;8.40;99.90
9800;DHT22;4939;52.00085300;4.17406100;2023-04-07T03:09:01;8.40;99.90
9800;DHT22;4939;52.00085300;4.17406100;2023-04-07T03:11:27;8.40;99.90
9800;DHT22;4939;52.00085300;4.17406100;2023-04-07T03:13:54;8.50;99.90
9800;DHT22;4939;52.00085300;4.17406100;2023-04-07T03:16:20;8.50;99.90
9800;DHT22;4939;52.00085300;4.17406100;2023-04-07T03:18:46;8.50;99.90
9800;DHT22;4939;52.00085300;4.17406100;2023-04-07T03:21:19;8.50;99.90
9800;DHT22;4939;52.00085300;4.17406100;2023-04-07T03:23:45;8.40;99.90
9800;DHT22;4939;52.00085300;4.17406100;2023-04-07T03:26:13;8.40;99.90
9800;DHT22;4939;52.00085300;4.17406100;2023-04-07T03:28:39;8.50;99.90
9800;DHT22;4939;52.00085300;4.17406100;2023-04-07T03:31:05;8.40;99.90
9800;DHT22;4939;52.00085300;4.17406100;2023-04-07T03:33:31;8.40;99.90
9800;DHT22;4939;52.00085300;4.17406100;2023-04-07T03:35:57;8.50;99.90
9800;DHT22;4939;52.00085300;4.17406100;2023-04-07T03:38:22;8.40;99.90
9800;DHT22;4939;52.00085300;4.17406100;2023-04-07T03:40:48;8.40;99.90
9800;DHT22;4939;52.00085300;4.17406100;2023-04-07T03:43:14;8.40;99.90
9800;DHT22;4939;52.00085300;4.17406100;2023-04-07T03:45:41;8.50;99.90
9800;DHT22;4939;52.00085300;4.17406100;2023-04-07T03:48:07;8.40;99.90
9800;DHT22;4939;52.00085300;4.17406100;2023-04-07T03:50:40;8.40;99.90
9800;DHT22;4939;52.00085300;4.17406100;2023-04-07T03:53:06;8.40;99.90
9800;DHT22;4939;52.00085300;4.17406100;2023-04-07T03:55:32;8.40;99.90
9800;DHT22;4939;52.00085300;4.17406100;2023-04-07T03:57:59;8.40;99.90
9800;DHT22;4939;52.00085300;4.17406100;2023-04-07T04:00:25;8.50;99.90
9800;DHT22;4939;52.00085300;4.17406100;2023-04-07T04:02:51;8.40;99.90
9800;DHT22;4939;52.00085300;4.17406100;2023-04-07T04:05:17;9.20;99.90
9800;DHT22;4939;52.00085300;4.17406100;2023-04-07T04:07:43;8.40;99.90
9800;DHT22;4939;52.00085300;4.17406100;2023-04-07T04:10:09;8.50;99.90
9800;DHT22;4939;52.00085300;4.17406100;2023-04-07T04:12:36;8.50;99.90
9800;DHT22;4939;52.00085300;4.17406100;2023-04-07T04:15:01;8.40;99.90
9800;DHT22;4939;52.00085300;4.17406100;2023-04-07T04:17:27;8.50;99.90
9800;DHT22;4939;52.00085300;4.17406100;2023-04-07T04:19:53;8.40;99.90
9800;DHT22;4939;52.00085300;4.17406100;2023-04-07T04:22:19;8.60;99.90
9800;DHT22;4939;52.00085300;4.17406100;2023-04-07T04:24:45;8.60;99.90
9800;DHT22;4939;52.00085300;4.17406100;2023-04-07T04:27:11;8.50;99.90
9800;DHT22;4939;52.00085300;4.17406100;2023-04-07T04:29:36;8.50;99.90
9800;DHT22;4939;52.00085300;4.17406100;2023-04-07T04:32:02;8.50;99.90
9800;DHT22;4939;52.00085300;4.17406100;2023-04-07T04:34:28;8.50;99.90
9800;DHT22;4939;52.00085300;4.17406100;2023-04-07T04:36:53;8.50;99.90
9800;DHT22;4939;52.00085300;4.17406100;2023-04-07T04:39:19;8.50;99.90
9800;DHT22;4939;52.00085300;4.17406100;2023-04-07T04:41:45;8.50;99.90
9800;DHT22;4939;52.00085300;4.17406100;2023-04-07T04:44:11;8.60;99.90
9800;DHT22;4939;52.00085300;4.17406100;2023-04-07T04:46:37;8.50;99.90
9800;DHT22;4939;52.00085300;4.17406100;2023-04-07T04:49:02;8.50;99.90
9800;DHT22;4939;52.00085300;4.17406100;2023-04-07T04:51:28;8.50;99.90
9800;DHT22;4939;52.00085300;4.17406100;2023-04-07T04:53:54;8.50;99.90
9800;DHT22;4939;52.00085300;4.17406100;2023-04-07T04:56:19;8.50;99.90
9800;DHT22;4939;52.00085300;4.17406100;2023-04-07T04:58:46;8.50;99.90
9800;DHT22;4939;52.00085300;4.17406100;2023-04-07T05:01:12;8.50;99.90
9800;DHT22;4939;52.00085300;4.17406100;2023-04-07T05:03:38;8.50;99.90
9800;DHT22;4939;52.00085300;4.17406100;2023-04-07T05:06:04;8.50;99.90
9800;DHT22;4939;52.00085300;4.17406100;2023-04-07T05:08:30;8.50;99.90
9800;DHT22;4939;52.00085300;4.17406100;2023-04-07T05:10:56;8.50;99.90
9800;DHT22;4939;52.00085300;4.17406100;2023-04-07T05:13:22;8.40;99.90
9800;DHT22;4939;52.00085300;4.17406100;2023-04-07T05:15:48;8.60;99.90
9800;DHT22;4939;52.00085300;4.17406100;2023-04-07T05:18:13;8.60;99.90
9800;DHT22;4939;52.00085300;4.17406100;2023-04-07T05:20:39;8.50;99.90
9800;DHT22;4939;52.00085300;4.17406100;2023-04-07T05:23:05;8.60;99.90
9800;DHT22;4939;52.00085300;4.17406100;2023-04-07T05:25:31;8.50;99.90
9800;DHT22;4939;52.00085300;4.17406100;2023-04-07T05:27:58;8.60;99.90
9800;DHT22;4939;52.00085300;4.17406100;2023-04-07T05:30:26;8.50;99.90
9800;DHT22;4939;52.00085300;4.17406100;2023-04-07T05:32:53;8.60;99.90
9800;DHT22;4939;52.00085300;4.17406100;2023-04-07T05:35:19;8.60;99.90
9800;DHT22;4939;52.00085300;4.17406100;2023-04-07T05:37:45;8.60;99.90
9800;DHT22;4939;52.00085300;4.17406100;2023-04-07T05:40:11;8.60;99.90
9800;DHT22;4939;52.00085300;4.17406100;2023-04-07T05:42:37;8.60;99.90
9800;DHT22;4939;52.00085300;4.17406100;2023-04-07T05:45:03;8.70;99.90
9800;DHT22;4939;52.00085300;4.17406100;2023-04-07T05:47:29;8.60;99.90
9800;DHT22;4939;52.00085300;4.17406100;2023-04-07T05:49:54;8.60;99.90
9800;DHT22;4939;52.00085300;4.17406100;2023-04-07T05:54:46;8.60;99.90
9800;DHT22;4939;52.00085300;4.17406100;2023-04-07T05:57:12;8.70;99.90
9800;DHT22;4939;52.00085300;4.17406100;2023-04-07T05:59:38;8.70;99.90
9800;DHT22;4939;52.00085300;4.17406100;2023-04-07T06:02:04;8.70;99.90
9800;DHT22;4939;52.00085300;4.17406100;2023-04-07T06:04:29;8.70;99.90
9800;DHT22;4939;52.00085300;4.17406100;2023-04-07T06:06:55;8.70;99.90
9800;DHT22;4939;52.00085300;4.17406100;2023-04-07T06:09:21;8.80;99.90
9800;DHT22;4939;52.00085300;4.17406100;2023-04-07T06:14:13;8.70;99.90
9800;DHT22;4939;52.00085300;4.17406100;2023-04-07T06:16:39;8.70;99.90
9800;DHT22;4939;52.00085300;4.17406100;2023-04-07T06:19:05;8.70;99.90
9800;DHT22;4939;52.00085300;4.17406100;2023-04-07T06:21:32;8.80;99.90
9800;DHT22;4939;52.00085300;4.17406100;2023-04-07T06:23:58;8.80;99.90
9800;DHT22;4939;52.00085300;4.17406100;2023-04-07T06:26:24;8.80;99.90
9800;DHT22;4939;52.00085300;4.17406100;2023-04-07T06:31:16;8.70;99.90
9800;DHT22;4939;52.00085300;4.17406100;2023-04-07T06:33:43;8.80;99.90
9800;DHT22;4939;52.00085300;4.17406100;2023-04-07T06:38:35;8.70;99.90
9800;DHT22;4939;52.00085300;4.17406100;2023-04-07T06:41:01;8.70;99.90
9800;DHT22;4939;52.00085300;4.17406100;2023-04-07T06:45:53;8.70;99.90
9800;DHT22;4939;52.00085300;4.17406100;2023-04-07T06:48:18;8.70;99.90
9800;DHT22;4939;52.00085300;4.17406100;2023-04-07T06:50:50;8.70;99.90
9800;DHT22;4939;52.00085300;4.17406100;2023-04-07T06:53:16;8.70;99.90
9800;DHT22;4939;52.00085300;4.17406100;2023-04-07T06:58:08;8.80;99.90
9800;DHT22;4939;52.00085300;4.17406100;2023-04-07T07:00:34;8.80;99.90
9800;DHT22;4939;52.00085300;4.17406100;2023-04-07T07:03:00;8.80;99.90
9800;DHT22;4939;52.00085300;4.17406100;2023-04-07T07:05:26;8.80;99.90
9800;DHT22;4939;52.00085300;4.17406100;2023-04-07T07:07:51;8.80;99.90
9800;DHT22;4939;52.00085300;4.17406100;2023-04-07T07:10:17;8.80;99.90
9800;DHT22;4939;52.00085300;4.17406100;2023-04-07T07:12:44;8.80;99.90
9800;DHT22;4939;52.00085300;4.17406100;2023-04-07T07:15:10;8.80;99.90
9800;DHT22;4939;52.00085300;4.17406100;2023-04-07T07:17:36;8.80;99.90
9800;DHT22;4939;52.00085300;4.17406100;2023-04-07T07:20:02;8.90;99.90
9800;DHT22;4939;52.00085300;4.17406100;2023-04-07T07:22:27;9.00;99.90
9800;DHT22;4939;52.00085300;4.17406100;2023-04-07T07:24:53;9.00;99.90
9800;DHT22;4939;52.00085300;4.17406100;2023-04-07T07:27:18;9.10;99.90
9800;DHT22;4939;52.00085300;4.17406100;2023-04-07T07:29:44;9.20;99.90
9800;DHT22;4939;52.00085300;4.17406100;2023-04-07T07:32:10;9.10;99.90
9800;DHT22;4939;52.00085300;4.17406100;2023-04-07T07:37:01;9.10;99.90
9800;DHT22;4939;52.00085300;4.17406100;2023-04-07T07:39:27;9.10;99.90
9800;DHT22;4939;52.00085300;4.17406100;2023-04-07T07:41:54;9.30;99.90
9800;DHT22;4939;52.00085300;4.17406100;2023-04-07T07:44:20;9.40;99.90
9800;DHT22;4939;52.00085300;4.17406100;2023-04-07T07:46:47;9.40;99.90
9800;DHT22;4939;52.00085300;4.17406100;2023-04-07T07:49:13;9.30;99.90
9800;DHT22;4939;52.00085300;4.17406100;2023-04-07T07:51:39;9.30;99.90
9800;DHT22;4939;52.00085300;4.17406100;2023-04-07T07:54:04;9.30;99.90
9800;DHT22;4939;52.00085300;4.17406100;2023-04-07T07:56:30;9.40;99.90
9800;DHT22;4939;52.00085300;4.17406100;2023-04-07T07:58:56;9.30;99.90
9800;DHT22;4939;52.00085300;4.17406100;2023-04-07T08:01:21;9.30;99.90
9800;DHT22;4939;52.00085300;4.17406100;2023-04-07T08:03:47;9.40;99.90
9800;DHT22;4939;52.00085300;4.17406100;2023-04-07T08:08:39;9.50;99.90
9800;DHT22;4939;52.00085300;4.17406100;2023-04-07T08:11:05;9.50;99.90
9800;DHT22;4939;52.00085300;4.17406100;2023-04-07T08:13:30;9.50;99.90
9800;DHT22;4939;52.00085300;4.17406100;2023-04-07T08:15:56;9.60;99.90
9800;DHT22;4939;52.00085300;4.17406100;2023-04-07T08:18:22;9.70;99.90
9800;DHT22;4939;52.00085300;4.17406100;2023-04-07T08:20:47;9.70;99.90
9800;DHT22;4939;52.00085300;4.17406100;2023-04-07T08:23:13;9.60;99.90
9800;DHT22;4939;52.00085300;4.17406100;2023-04-07T08:25:39;9.60;99.90
9800;DHT22;4939;52.00085300;4.17406100;2023-04-07T08:28:05;9.60;99.90
9800;DHT22;4939;52.00085300;4.17406100;2023-04-07T08:30:31;9.50;99.90
9800;DHT22;4939;52.00085300;4.17406100;2023-04-07T08:35:22;9.50;99.90
9800;DHT22;4939;52.00085300;4.17406100;2023-04-07T08:37:48;9.50;99.90
9800;DHT22;4939;52.00085300;4.17406100;2023-04-07T08:40:14;9.60;99.90
9800;DHT22;4939;52.00085300;4.17406100;2023-04-07T08:42:46;9.50;99.90
9800;DHT22;4939;52.00085300;4.17406100;2023-04-07T08:45:15;9.60;99.90
9800;DHT22;4939;52.00085300;4.17406100;2023-04-07T08:47:42;9.60;99.90
9800;DHT22;4939;52.00085300;4.17406100;2023-04-07T08:50:11;9.70;99.90
9800;DHT22;4939;52.00085300;4.17406100;2023-04-07T08:52:52;9.60;99.90
9800;DHT22;4939;52.00085300;4.17406100;2023-04-07T08:55:18;9.40;99.90
9800;DHT22;4939;52.00085300;4.17406100;2023-04-07T08:57:45;9.40;99.90
9800;DHT22;4939;52.00085300;4.17406100;2023-04-07T09:00:12;9.40;99.90
9800;DHT22;4939;52.00085300;4.17406100;2023-04-07T09:02:40;9.40;99.90
9800;DHT22;4939;52.00085300;4.17406100;2023-04-07T09:05:08;9.50;99.90
9800;DHT22;4939;52.00085300;4.17406100;2023-04-07T09:07:35;9.50;99.90
9800;DHT22;4939;52.00085300;4.17406100;2023-04-07T09:10:01;9.50;99.90
9800;DHT22;4939;52.00085300;4.17406100;2023-04-07T09:12:28;9.50;99.90
9800;DHT22;4939;52.00085300;4.17406100;2023-04-07T09:14:54;9.50;99.90
9800;DHT22;4939;52.00085300;4.17406100;2023-04-07T09:19:47;9.50;99.90
9800;DHT22;4939;52.00085300;4.17406100;2023-04-07T09:22:13;9.50;99.90
9800;DHT22;4939;52.00085300;4.17406100;2023-04-07T09:24:40;9.50;99.90
9800;DHT22;4939;52.00085300;4.17406100;2023-04-07T09:27:15;9.50;99.90
9800;DHT22;4939;52.00085300;4.17406100;2023-04-07T09:29:42;9.60;99.90
9800;DHT22;4939;52.00085300;4.17406100;2023-04-07T09:34:37;9.80;99.90
9800;DHT22;4939;52.00085300;4.17406100;2023-04-07T09:37:04;9.90;99.90
9800;DHT22;4939;52.00085300;4.17406100;2023-04-07T09:41:58;9.90;99.90
9800;DHT22;4939;52.00085300;4.17406100;2023-04-07T09:44:39;9.90;99.90
9800;DHT22;4939;52.00085300;4.17406100;2023-04-07T09:47:05;9.80;99.90
9800;DHT22;4939;52.00085300;4.17406100;2023-04-07T09:49:31;9.70;99.90
9800;DHT22;4939;52.00085300;4.17406100;2023-04-07T09:51:59;9.60;99.90
9800;DHT22;4939;52.00085300;4.17406100;2023-04-07T09:54:37;9.70;99.90
9800;DHT22;4939;52.00085300;4.17406100;2023-04-07T09:57:04;9.60;99.90
9800;DHT22;4939;52.00085300;4.17406100;2023-04-07T09:59:31;9.60;99.90
9800;DHT22;4939;52.00085300;4.17406100;2023-04-07T10:01:58;9.70;99.90
9800;DHT22;4939;52.00085300;4.17406100;2023-04-07T10:06:54;9.60;99.90
9800;DHT22;4939;52.00085300;4.17406100;2023-04-07T10:09:24;9.70;99.90
9800;DHT22;4939;52.00085300;4.17406100;2023-04-07T10:11:51;9.80;99.90
9800;DHT22;4939;52.00085300;4.17406100;2023-04-07T10:14:21;9.80;99.90
9800;DHT22;4939;52.00085300;4.17406100;2023-04-07T10:16:50;9.90;99.90
9800;DHT22;4939;52.00085300;4.17406100;2023-04-07T10:19:18;10.00;99.90
9800;DHT22;4939;52.00085300;4.17406100;2023-04-07T10:21:44;10.20;99.90
9800;DHT22;4939;52.00085300;4.17406100;2023-04-07T10:24:36;10.30;99.90
9800;DHT22;4939;52.00085300;4.17406100;2023-04-07T10:27:10;10.30;99.90
9800;DHT22;4939;52.00085300;4.17406100;2023-04-07T10:29:41;10.30;99.90
9800;DHT22;4939;52.00085300;4.17406100;2023-04-07T10:32:08;10.30;99.90
9800;DHT22;4939;52.00085300;4.17406100;2023-04-07T10:37:16;10.30;99.90
9800;DHT22;4939;52.00085300;4.17406100;2023-04-07T10:39:45;10.40;99.90
9800;DHT22;4939;52.00085300;4.17406100;2023-04-07T10:45:07;10.40;99.90
9800;DHT22;4939;52.00085300;4.17406100;2023-04-07T10:47:35;10.30;99.90
9800;DHT22;4939;52.00085300;4.17406100;2023-04-07T10:50:22;10.10;99.90
9800;DHT22;4939;52.00085300;4.17406100;2023-04-07T10:53:03;10.00;99.90
9800;DHT22;4939;52.00085300;4.17406100;2023-04-07T10:55:40;10.10;99.90
9800;DHT22;4939;52.00085300;4.17406100;2023-04-07T10:58:15;10.20;99.90
9800;DHT22;4939;52.00085300;4.17406100;2023-04-07T11:03:35;10.30;99.90
9800;DHT22;4939;52.00085300;4.17406100;2023-04-07T11:06:03;10.40;99.90
9800;DHT22;4939;52.00085300;4.17406100;2023-04-07T11:08:36;10.40;99.90
9800;DHT22;4939;52.00085300;4.17406100;2023-04-07T11:11:03;10.40;99.90
9800;DHT22;4939;52.00085300;4.17406100;2023-04-07T11:13:43;10.20;99.90
9800;DHT22;4939;52.00085300;4.17406100;2023-04-07T11:18:38;10.10;99.90
9800;DHT22;4939;52.00085300;4.17406100;2023-04-07T11:21:04;10.20;99.90
9800;DHT22;4939;52.00085300;4.17406100;2023-04-07T11:23:37;10.20;99.90
9800;DHT22;4939;52.00085300;4.17406100;2023-04-07T11:30:56;10.30;99.90
9800;DHT22;4939;52.00085300;4.17406100;2023-04-07T11:33:27;10.30;99.90
9800;DHT22;4939;52.00085300;4.17406100;2023-04-07T11:35:55;10.20;99.90
9800;DHT22;4939;52.00085300;4.17406100;2023-04-07T11:38:24;10.30;99.90
9800;DHT22;4939;52.00085300;4.17406100;2023-04-07T11:40:54;10.40;99.90
9800;DHT22;4939;52.00085300;4.17406100;2023-04-07T11:43:24;10.40;99.90
9800;DHT22;4939;52.00085300;4.17406100;2023-04-07T11:46:26;10.50;99.90
9800;DHT22;4939;52.00085300;4.17406100;2023-04-07T11:48:51;10.30;99.90
9800;DHT22;4939;52.00085300;4.17406100;2023-04-07T11:51:19;10.40;99.90
9800;DHT22;4939;52.00085300;4.17406100;2023-04-07T11:56:14;10.40;99.90
9800;DHT22;4939;52.00085300;4.17406100;2023-04-07T11:58:50;10.40;99.90
9800;DHT22;4939;52.00085300;4.17406100;2023-04-07T12:01:17;10.50;99.90
9800;DHT22;4939;52.00085300;4.17406100;2023-04-07T12:04:00;10.70;99.90
9800;DHT22;4939;52.00085300;4.17406100;2023-04-07T12:06:27;10.70;99.90
9800;DHT22;4939;52.00085300;4.17406100;2023-04-07T12:11:25;10.70;99.90
9800;DHT22;4939;52.00085300;4.17406100;2023-04-07T12:13:51;10.80;99.90
9800;DHT22;4939;52.00085300;4.17406100;2023-04-07T12:16:17;10.80;99.90
9800;DHT22;4939;52.00085300;4.17406100;2023-04-07T12:21:09;10.70;99.90
9800;DHT22;4939;52.00085300;4.17406100;2023-04-07T12:23:35;10.70;99.90
9800;DHT22;4939;52.00085300;4.17406100;2023-04-07T12:30:54;10.60;99.90
9800;DHT22;4939;52.00085300;4.17406100;2023-04-07T12:33:20;10.70;99.90
9800;DHT22;4939;52.00085300;4.17406100;2023-04-07T12:35:46;10.60;99.90
9800;DHT22;4939;52.00085300;4.17406100;2023-04-07T12:38:12;10.60;99.90
9800;DHT22;4939;52.00085300;4.17406100;2023-04-07T12:40:38;10.60;99.90
9800;DHT22;4939;52.00085300;4.17406100;2023-04-07T12:43:06;10.50;99.90
9800;DHT22;4939;52.00085300;4.17406100;2023-04-07T12:45:32;10.50;99.90
9800;DHT22;4939;52.00085300;4.17406100;2023-04-07T12:50:24;10.60;99.90
9800;DHT22;4939;52.00085300;4.17406100;2023-04-07T12:55:17;10.60;99.90
9800;DHT22;4939;52.00085300;4.17406100;2023-04-07T13:00:10;10.50;99.90
9800;DHT22;4939;52.00085300;4.17406100;2023-04-07T13:02:35;10.50;99.90
9800;DHT22;4939;52.00085300;4.17406100;2023-04-07T13:05:02;10.60;99.90
9800;DHT22;4939;52.00085300;4.17406100;2023-04-07T13:07:29;10.70;99.90
9800;DHT22;4939;52.00085300;4.17406100;2023-04-07T13:09:55;10.50;99.90
9800;DHT22;4939;52.00085300;4.17406100;2023-04-07T13:14:47;10.60;99.90
9800;DHT22;4939;52.00085300;4.17406100;2023-04-07T13:17:13;10.50;99.90
9800;DHT22;4939;52.00085300;4.17406100;2023-04-07T13:19:39;10.60;99.90
9800;DHT22;4939;52.00085300;4.17406100;2023-04-07T13:22:06;10.70;99.90
9800;DHT22;4939;52.00085300;4.17406100;2023-04-07T13:24:32;10.80;99.90
9800;DHT22;4939;52.00085300;4.17406100;2023-04-07T13:26:57;11.00;99.90
9800;DHT22;4939;52.00085300;4.17406100;2023-04-07T13:34:17;10.80;99.90
9800;DHT22;4939;52.00085300;4.17406100;2023-04-07T13:39:11;10.70;99.90
9800;DHT22;4939;52.00085300;4.17406100;2023-04-07T13:44:04;10.90;99.90
9800;DHT22;4939;52.00085300;4.17406100;2023-04-07T13:46:30;10.80;99.90
9800;DHT22;4939;52.00085300;4.17406100;2023-04-07T13:48:56;10.60;99.90
9800;DHT22;4939;52.00085300;4.17406100;2023-04-07T13:51:21;10.80;99.90
9800;DHT22;4939;52.00085300;4.17406100;2023-04-07T13:56:13;10.70;99.90
9800;DHT22;4939;52.00085300;4.17406100;2023-04-07T13:58:39;10.70;99.90
9800;DHT22;4939;52.00085300;4.17406100;2023-04-07T14:03:30;10.70;99.90
9800;DHT22;4939;52.00085300;4.17406100;2023-04-07T14:05:57;10.70;99.90
9800;DHT22;4939;52.00085300;4.17406100;2023-04-07T14:08:26;10.80;99.90
9800;DHT22;4939;52.00085300;4.17406100;2023-04-07T14:10:52;10.70;99.90
9800;DHT22;4939;52.00085300;4.17406100;2023-04-07T14:13:18;10.60;99.90
9800;DHT22;4939;52.00085300;4.17406100;2023-04-07T14:18:10;10.20;99.90
9800;DHT22;4939;52.00085300;4.17406100;2023-04-07T14:20:36;10.20;99.90
9800;DHT22;4939;52.00085300;4.17406100;2023-04-07T14:23:02;10.20;99.90
9800;DHT22;4939;52.00085300;4.17406100;2023-04-07T14:30:20;10.20;99.90
9800;DHT22;4939;52.00085300;4.17406100;2023-04-07T14:35:12;10.20;99.90
9800;DHT22;4939;52.00085300;4.17406100;2023-04-07T14:37:38;10.10;99.90
9800;DHT22;4939;52.00085300;4.17406100;2023-04-07T14:40:05;10.10;99.90
9800;DHT22;4939;52.00085300;4.17406100;2023-04-07T14:42:31;10.20;99.90
9800;DHT22;4939;52.00085300;4.17406100;2023-04-07T14:45:00;10.20;99.90
9800;DHT22;4939;52.00085300;4.17406100;2023-04-07T14:49:52;10.20;99.90
9800;DHT22;4939;52.00085300;4.17406100;2023-04-07T14:52:19;10.20;99.90
9800;DHT22;4939;52.00085300;4.17406100;2023-04-07T14:57:12;10.50;99.90
9800;DHT22;4939;52.00085300;4.17406100;2023-04-07T14:59:39;10.40;99.90
9800;DHT22;4939;52.00085300;4.17406100;2023-04-07T15:02:05;10.40;99.90
9800;DHT22;4939;52.00085300;4.17406100;2023-04-07T15:04:32;10.50;99.90
9800;DHT22;4939;52.00085300;4.17406100;2023-04-07T15:06:57;10.50;99.90
9800;DHT22;4939;52.00085300;4.17406100;2023-04-07T15:09:23;10.50;99.90
9800;DHT22;4939;52.00085300;4.17406100;2023-04-07T15:11:49;10.50;99.90
9800;DHT22;4939;52.00085300;4.17406100;2023-04-07T15:14:14;10.40;99.90
9800;DHT22;4939;52.00085300;4.17406100;2023-04-07T15:21:32;10.30;99.90
9800;DHT22;4939;52.00085300;4.17406100;2023-04-07T15:23:58;10.20;99.90
9800;DHT22;4939;52.00085300;4.17406100;2023-04-07T15:26:23;10.10;99.90
9800;DHT22;4939;52.00085300;4.17406100;2023-04-07T15:28:49;10.20;99.90
9800;DHT22;4939;52.00085300;4.17406100;2023-04-07T15:31:15;10.20;99.90
9800;DHT22;4939;52.00085300;4.17406100;2023-04-07T15:33:41;10.30;99.90
9800;DHT22;4939;52.00085300;4.17406100;2023-04-07T15:36:08;10.10;99.90
9800;DHT22;4939;52.00085300;4.17406100;2023-04-07T15:38:35;10.20;99.90
9800;DHT22;4939;52.00085300;4.17406100;2023-04-07T15:41:00;10.20;99.90
9800;DHT22;4939;52.00085300;4.17406100;2023-04-07T15:45:54;10.10;99.90
9800;DHT22;4939;52.00085300;4.17406100;2023-04-07T15:48:20;10.00;99.90
9800;DHT22;4939;52.00085300;4.17406100;2023-04-07T15:50:46;10.00;99.90
9800;DHT22;4939;52.00085300;4.17406100;2023-04-07T15:53:11;10.10;99.90
9800;DHT22;4939;52.00085300;4.17406100;2023-04-07T15:55:37;10.00;99.90